Terminal Aerodrome Forecast
Issued by NWS Denver/Boulder, CO

Home | Current Version | Previous Version | Text Only | Print | Product List | Glossary On
Versions: 1 2 3 4 5 6 7 8 9 10 11 12 13 14 15 16 17 18 19 20 21 22 23 24 25 26 27 28 29 30 31 32 33 34 35 36 37 38 39 40 41 42 43 44 45 46 47 48 49 50
000
FTUS45 KBOU 261621 AAC
TAFDEN
TAF AMD
KDEN 261621Z 2616/2718 09017G26KT P6SM -SHRA FEW015 BKN040 OVC070
      TEMPO 2616/2618 3SM -RA BR BKN025
     FM261800 10014G24KT 5SM -SHRA SCT015 BKN030 OVC040
      TEMPO 2618/2620 3SM -SHRA BR OVC015
     FM262000 12011G20KT 5SM -SHRA FEW005 SCT015 OVC030
      TEMPO 2620/2622 2SM -SHRA BR OVC005
     FM262200 10010G18KT 3SM -SHRA BR SCT006 OVC010
     FM270000 08010KT 3SM -SHRA BR SCT005 OVC010
     FM270600 07010KT 1SM -SHRA BR SCT002 OVC006
     FM271500 05009KT 3SM -SHRA BR SCT005 OVC010=

USA.gov is the U.S. government's official web portal to all federal, state and local government web resources and services.